sensor_id;sensor_type;location;lat;lon;timestamp;P1;durP1;ratioP1;P2;durP2;ratioP2
15155;SDS011;7678;50.058;8.306;2023-01-20T00:01:43;27.53;;;20.70;;
15155;SDS011;7678;50.058;8.306;2023-01-20T00:04:13;25.40;;;19.73;;
15155;SDS011;7678;50.058;8.306;2023-01-20T00:06:44;29.00;;;20.30;;
15155;SDS011;7678;50.058;8.306;2023-01-20T00:09:19;27.03;;;20.97;;
15155;SDS011;7678;50.058;8.306;2023-01-20T00:11:49;31.20;;;23.73;;
15155;SDS011;7678;50.058;8.306;2023-01-20T00:14:20;27.40;;;20.97;;
15155;SDS011;7678;50.058;8.306;2023-01-20T00:16:50;28.07;;;23.10;;
15155;SDS011;7678;50.058;8.306;2023-01-20T00:19:18;27.50;;;21.73;;
15155;SDS011;7678;50.058;8.306;2023-01-20T00:21:47;26.53;;;21.73;;
15155;SDS011;7678;50.058;8.306;2023-01-20T00:24:16;26.37;;;20.40;;
15155;SDS011;7678;50.058;8.306;2023-01-20T00:26:44;29.03;;;21.80;;
15155;SDS011;7678;50.058;8.306;2023-01-20T00:29:13;28.07;;;20.93;;
15155;SDS011;7678;50.058;8.306;2023-01-20T00:31:44;30.43;;;20.93;;
15155;SDS011;7678;50.058;8.306;2023-01-20T00:34:12;28.17;;;20.60;;
15155;SDS011;7678;50.058;8.306;2023-01-20T00:36:41;24.77;;;20.40;;
15155;SDS011;7678;50.058;8.306;2023-01-20T00:39:09;24.77;;;19.03;;
15155;SDS011;7678;50.058;8.306;2023-01-20T00:41:37;27.70;;;20.23;;
15155;SDS011;7678;50.058;8.306;2023-01-20T00:44:05;26.13;;;18.53;;
15155;SDS011;7678;50.058;8.306;2023-01-20T00:46:34;24.33;;;18.37;;
15155;SDS011;7678;50.058;8.306;2023-01-20T00:49:02;26.20;;;19.20;;
15155;SDS011;7678;50.058;8.306;2023-01-20T00:51:32;27.80;;;18.70;;
15155;SDS011;7678;50.058;8.306;2023-01-20T00:54:00;24.17;;;18.07;;
15155;SDS011;7678;50.058;8.306;2023-01-20T00:56:31;24.80;;;18.77;;
15155;SDS011;7678;50.058;8.306;2023-01-20T00:59:02;25.87;;;18.10;;
15155;SDS011;7678;50.058;8.306;2023-01-20T01:01:34;25.50;;;18.40;;
15155;SDS011;7678;50.058;8.306;2023-01-20T01:04:04;22.33;;;17.57;;
15155;SDS011;7678;50.058;8.306;2023-01-20T01:06:34;23.03;;;17.57;;
15155;SDS011;7678;50.058;8.306;2023-01-20T01:09:02;19.40;;;16.10;;
15155;SDS011;7678;50.058;8.306;2023-01-20T01:11:30;21.80;;;17.13;;
15155;SDS011;7678;50.058;8.306;2023-01-20T01:14:02;22.43;;;17.20;;
15155;SDS011;7678;50.058;8.306;2023-01-20T01:16:29;22.23;;;16.93;;
15155;SDS011;7678;50.058;8.306;2023-01-20T01:18:59;20.73;;;16.67;;
15155;SDS011;7678;50.058;8.306;2023-01-20T01:21:27;24.07;;;17.93;;
15155;SDS011;7678;50.058;8.306;2023-01-20T01:23:58;23.77;;;18.03;;
15155;SDS011;7678;50.058;8.306;2023-01-20T01:26:28;23.20;;;17.23;;
15155;SDS011;7678;50.058;8.306;2023-01-20T01:28:56;21.33;;;17.10;;
15155;SDS011;7678;50.058;8.306;2023-01-20T01:31:24;19.87;;;16.67;;
15155;SDS011;7678;50.058;8.306;2023-01-20T01:33:54;21.83;;;16.97;;
15155;SDS011;7678;50.058;8.306;2023-01-20T01:36:23;23.23;;;16.43;;
15155;SDS011;7678;50.058;8.306;2023-01-20T01:38:51;21.17;;;16.57;;
15155;SDS011;7678;50.058;8.306;2023-01-20T01:41:26;20.93;;;16.53;;
15155;SDS011;7678;50.058;8.306;2023-01-20T01:44:04;23.20;;;16.93;;
15155;SDS011;7678;50.058;8.306;2023-01-20T01:46:37;22.40;;;16.33;;
15155;SDS011;7678;50.058;8.306;2023-01-20T01:49:07;21.30;;;15.90;;
15155;SDS011;7678;50.058;8.306;2023-01-20T01:51:41;19.97;;;15.50;;
15155;SDS011;7678;50.058;8.306;2023-01-20T01:54:16;20.13;;;15.60;;
15155;SDS011;7678;50.058;8.306;2023-01-20T01:56:47;22.93;;;15.13;;
15155;SDS011;7678;50.058;8.306;2023-01-20T01:59:17;25.50;;;17.93;;
15155;SDS011;7678;50.058;8.306;2023-01-20T02:01:49;25.17;;;18.07;;
15155;SDS011;7678;50.058;8.306;2023-01-20T02:04:21;26.60;;;17.87;;
15155;SDS011;7678;50.058;8.306;2023-01-20T02:06:53;23.00;;;18.40;;
15155;SDS011;7678;50.058;8.306;2023-01-20T02:09:25;26.70;;;18.10;;
15155;SDS011;7678;50.058;8.306;2023-01-20T02:11:55;20.40;;;16.77;;
15155;SDS011;7678;50.058;8.306;2023-01-20T02:14:27;22.73;;;16.60;;
15155;SDS011;7678;50.058;8.306;2023-01-20T02:17:00;20.43;;;15.93;;
15155;SDS011;7678;50.058;8.306;2023-01-20T02:19:45;20.43;;;15.70;;
15155;SDS011;7678;50.058;8.306;2023-01-20T02:22:39;22.13;;;16.33;;
15155;SDS011;7678;50.058;8.306;2023-01-20T02:25:18;21.60;;;16.77;;
15155;SDS011;7678;50.058;8.306;2023-01-20T02:30:57;19.80;;;15.47;;
15155;SDS011;7678;50.058;8.306;2023-01-20T02:33:53;16.43;;;14.13;;
15155;SDS011;7678;50.058;8.306;2023-01-20T02:36:26;20.73;;;14.40;;
15155;SDS011;7678;50.058;8.306;2023-01-20T02:39:00;19.57;;;14.97;;
15155;SDS011;7678;50.058;8.306;2023-01-20T02:41:36;19.63;;;14.93;;
15155;SDS011;7678;50.058;8.306;2023-01-20T02:44:10;17.60;;;13.40;;
15155;SDS011;7678;50.058;8.306;2023-01-20T02:46:46;20.87;;;14.97;;
15155;SDS011;7678;50.058;8.306;2023-01-20T02:49:20;18.27;;;13.33;;
15155;SDS011;7678;50.058;8.306;2023-01-20T02:51:53;20.47;;;13.83;;
15155;SDS011;7678;50.058;8.306;2023-01-20T02:54:26;19.10;;;13.57;;
15155;SDS011;7678;50.058;8.306;2023-01-20T02:56:57;21.27;;;13.97;;
15155;SDS011;7678;50.058;8.306;2023-01-20T02:59:30;20.57;;;14.37;;
15155;SDS011;7678;50.058;8.306;2023-01-20T03:02:08;17.97;;;14.03;;
15155;SDS011;7678;50.058;8.306;2023-01-20T03:04:43;18.80;;;13.90;;
15155;SDS011;7678;50.058;8.306;2023-01-20T03:07:15;18.07;;;13.83;;
15155;SDS011;7678;50.058;8.306;2023-01-20T03:09:46;17.37;;;13.10;;
15155;SDS011;7678;50.058;8.306;2023-01-20T03:12:17;18.33;;;13.77;;
15155;SDS011;7678;50.058;8.306;2023-01-20T03:14:52;16.17;;;12.93;;
15155;SDS011;7678;50.058;8.306;2023-01-20T03:17:22;14.80;;;12.47;;
15155;SDS011;7678;50.058;8.306;2023-01-20T03:19:51;16.77;;;12.90;;
15155;SDS011;7678;50.058;8.306;2023-01-20T03:22:19;14.07;;;11.60;;
15155;SDS011;7678;50.058;8.306;2023-01-20T03:24:47;17.37;;;13.03;;
15155;SDS011;7678;50.058;8.306;2023-01-20T03:27:18;15.57;;;11.87;;
15155;SDS011;7678;50.058;8.306;2023-01-20T03:29:46;15.60;;;11.33;;
15155;SDS011;7678;50.058;8.306;2023-01-20T03:32:17;16.23;;;11.73;;
15155;SDS011;7678;50.058;8.306;2023-01-20T03:34:53;15.57;;;11.93;;
15155;SDS011;7678;50.058;8.306;2023-01-20T03:37:23;15.77;;;11.87;;
15155;SDS011;7678;50.058;8.306;2023-01-20T03:39:51;15.57;;;12.20;;
15155;SDS011;7678;50.058;8.306;2023-01-20T03:42:27;15.10;;;11.57;;
15155;SDS011;7678;50.058;8.306;2023-01-20T03:45:03;16.60;;;10.53;;
15155;SDS011;7678;50.058;8.306;2023-01-20T03:47:41;13.07;;;11.07;;
15155;SDS011;7678;50.058;8.306;2023-01-20T03:50:20;14.77;;;11.73;;
15155;SDS011;7678;50.058;8.306;2023-01-20T03:52:59;13.80;;;10.30;;
15155;SDS011;7678;50.058;8.306;2023-01-20T03:55:34;13.23;;;10.53;;
15155;SDS011;7678;50.058;8.306;2023-01-20T03:58:09;12.37;;;10.60;;
15155;SDS011;7678;50.058;8.306;2023-01-20T04:00:44;16.07;;;10.73;;
15155;SDS011;7678;50.058;8.306;2023-01-20T04:03:15;15.67;;;11.10;;
15155;SDS011;7678;50.058;8.306;2023-01-20T04:05:47;12.70;;;10.60;;
15155;SDS011;7678;50.058;8.306;2023-01-20T04:08:16;12.60;;;9.90;;
15155;SDS011;7678;50.058;8.306;2023-01-20T04:10:49;15.77;;;10.90;;
15155;SDS011;7678;50.058;8.306;2023-01-20T04:13:19;13.97;;;10.50;;
15155;SDS011;7678;50.058;8.306;2023-01-20T04:15:47;13.30;;;11.37;;
15155;SDS011;7678;50.058;8.306;2023-01-20T04:18:16;13.97;;;9.60;;
15155;SDS011;7678;50.058;8.306;2023-01-20T04:20:47;12.53;;;10.00;;
15155;SDS011;7678;50.058;8.306;2023-01-20T04:23:19;13.63;;;10.60;;
15155;SDS011;7678;50.058;8.306;2023-01-20T04:25:50;15.43;;;10.50;;
15155;SDS011;7678;50.058;8.306;2023-01-20T04:28:20;14.40;;;9.67;;
15155;SDS011;7678;50.058;8.306;2023-01-20T04:30:48;12.20;;;10.27;;
15155;SDS011;7678;50.058;8.306;2023-01-20T04:33:16;14.63;;;9.93;;
15155;SDS011;7678;50.058;8.306;2023-01-20T04:35:48;13.30;;;10.03;;
15155;SDS011;7678;50.058;8.306;2023-01-20T04:38:19;12.23;;;9.63;;
15155;SDS011;7678;50.058;8.306;2023-01-20T04:40:47;12.60;;;10.20;;
15155;SDS011;7678;50.058;8.306;2023-01-20T04:43:15;14.97;;;11.07;;
15155;SDS011;7678;50.058;8.306;2023-01-20T04:45:43;12.83;;;10.57;;
15155;SDS011;7678;50.058;8.306;2023-01-20T04:48:11;13.57;;;11.20;;
15155;SDS011;7678;50.058;8.306;2023-01-20T04:50:39;12.63;;;11.00;;
15155;SDS011;7678;50.058;8.306;2023-01-20T04:53:10;13.33;;;10.33;;
15155;SDS011;7678;50.058;8.306;2023-01-20T04:55:42;14.77;;;10.37;;
15155;SDS011;7678;50.058;8.306;2023-01-20T04:58:10;16.47;;;11.67;;
15155;SDS011;7678;50.058;8.306;2023-01-20T05:00:38;15.70;;;11.20;;
15155;SDS011;7678;50.058;8.306;2023-01-20T05:03:09;17.60;;;11.03;;
15155;SDS011;7678;50.058;8.306;2023-01-20T05:05:52;15.00;;;11.00;;
15155;SDS011;7678;50.058;8.306;2023-01-20T05:08:23;14.97;;;11.13;;
15155;SDS011;7678;50.058;8.306;2023-01-20T05:10:51;13.27;;;10.77;;
15155;SDS011;7678;50.058;8.306;2023-01-20T05:13:22;15.67;;;12.33;;
15155;SDS011;7678;50.058;8.306;2023-01-20T05:15:50;15.23;;;10.27;;
15155;SDS011;7678;50.058;8.306;2023-01-20T05:18:18;13.73;;;10.50;;
15155;SDS011;7678;50.058;8.306;2023-01-20T05:20:48;14.00;;;11.03;;
15155;SDS011;7678;50.058;8.306;2023-01-20T05:23:20;17.10;;;11.00;;
15155;SDS011;7678;50.058;8.306;2023-01-20T05:25:50;15.00;;;11.30;;
15155;SDS011;7678;50.058;8.306;2023-01-20T05:28:18;12.97;;;10.53;;
15155;SDS011;7678;50.058;8.306;2023-01-20T05:30:49;16.60;;;11.63;;
15155;SDS011;7678;50.058;8.306;2023-01-20T05:33:18;14.90;;;11.10;;
15155;SDS011;7678;50.058;8.306;2023-01-20T05:35:49;14.00;;;10.70;;
15155;SDS011;7678;50.058;8.306;2023-01-20T05:38:19;11.50;;;9.37;;
15155;SDS011;7678;50.058;8.306;2023-01-20T05:40:48;14.47;;;11.10;;
15155;SDS011;7678;50.058;8.306;2023-01-20T05:43:16;15.33;;;10.70;;
15155;SDS011;7678;50.058;8.306;2023-01-20T05:45:46;12.93;;;10.53;;
15155;SDS011;7678;50.058;8.306;2023-01-20T05:48:17;14.27;;;10.17;;
15155;SDS011;7678;50.058;8.306;2023-01-20T05:50:45;13.63;;;10.20;;
15155;SDS011;7678;50.058;8.306;2023-01-20T05:53:13;14.73;;;10.00;;
15155;SDS011;7678;50.058;8.306;2023-01-20T05:55:41;15.73;;;10.43;;
15155;SDS011;7678;50.058;8.306;2023-01-20T05:58:12;16.13;;;10.57;;
15155;SDS011;7678;50.058;8.306;2023-01-20T06:00:40;17.00;;;11.17;;
15155;SDS011;7678;50.058;8.306;2023-01-20T06:03:08;12.97;;;10.93;;
15155;SDS011;7678;50.058;8.306;2023-01-20T06:05:36;14.07;;;10.97;;
15155;SDS011;7678;50.058;8.306;2023-01-20T06:08:05;19.43;;;12.37;;
15155;SDS011;7678;50.058;8.306;2023-01-20T06:10:33;15.73;;;11.57;;
15155;SDS011;7678;50.058;8.306;2023-01-20T06:13:04;15.47;;;11.70;;
15155;SDS011;7678;50.058;8.306;2023-01-20T06:15:33;17.63;;;11.77;;
15155;SDS011;7678;50.058;8.306;2023-01-20T06:18:04;18.27;;;12.07;;
15155;SDS011;7678;50.058;8.306;2023-01-20T06:20:32;16.63;;;12.27;;
15155;SDS011;7678;50.058;8.306;2023-01-20T06:23:03;13.70;;;11.23;;
15155;SDS011;7678;50.058;8.306;2023-01-20T06:25:33;17.77;;;11.97;;
15155;SDS011;7678;50.058;8.306;2023-01-20T06:28:01;16.03;;;11.63;;
15155;SDS011;7678;50.058;8.306;2023-01-20T06:30:30;17.70;;;12.23;;
15155;SDS011;7678;50.058;8.306;2023-01-20T06:32:59;17.27;;;12.53;;
15155;SDS011;7678;50.058;8.306;2023-01-20T06:35:27;16.13;;;12.63;;
15155;SDS011;7678;50.058;8.306;2023-01-20T06:38:00;15.70;;;12.30;;
15155;SDS011;7678;50.058;8.306;2023-01-20T06:40:31;17.17;;;13.80;;
15155;SDS011;7678;50.058;8.306;2023-01-20T06:43:01;16.23;;;12.67;;
15155;SDS011;7678;50.058;8.306;2023-01-20T06:45:29;19.57;;;13.73;;
15155;SDS011;7678;50.058;8.306;2023-01-20T06:47:57;19.93;;;13.63;;
15155;SDS011;7678;50.058;8.306;2023-01-20T06:50:27;16.50;;;13.13;;
15155;SDS011;7678;50.058;8.306;2023-01-20T06:52:56;17.63;;;13.13;;
15155;SDS011;7678;50.058;8.306;2023-01-20T06:55:39;16.90;;;13.43;;
15155;SDS011;7678;50.058;8.306;2023-01-20T06:58:08;19.57;;;14.27;;
15155;SDS011;7678;50.058;8.306;2023-01-20T07:00:37;18.60;;;14.13;;
15155;SDS011;7678;50.058;8.306;2023-01-20T07:03:07;20.80;;;13.73;;
15155;SDS011;7678;50.058;8.306;2023-01-20T07:05:39;18.40;;;12.47;;
15155;SDS011;7678;50.058;8.306;2023-01-20T07:08:07;17.70;;;12.70;;
15155;SDS011;7678;50.058;8.306;2023-01-20T07:10:40;17.57;;;13.00;;
15155;SDS011;7678;50.058;8.306;2023-01-20T07:13:10;19.83;;;13.30;;
15155;SDS011;7678;50.058;8.306;2023-01-20T07:15:38;18.13;;;13.50;;
15155;SDS011;7678;50.058;8.306;2023-01-20T07:18:06;18.40;;;13.13;;
15155;SDS011;7678;50.058;8.306;2023-01-20T07:20:35;18.53;;;13.60;;
15155;SDS011;7678;50.058;8.306;2023-01-20T07:23:04;19.27;;;12.87;;
15155;SDS011;7678;50.058;8.306;2023-01-20T07:25:38;18.07;;;13.80;;
15155;SDS011;7678;50.058;8.306;2023-01-20T07:28:09;19.60;;;13.50;;
15155;SDS011;7678;50.058;8.306;2023-01-20T07:30:37;20.37;;;15.03;;
15155;SDS011;7678;50.058;8.306;2023-01-20T07:33:07;21.93;;;17.50;;
15155;SDS011;7678;50.058;8.306;2023-01-20T07:35:36;24.50;;;18.40;;
15155;SDS011;7678;50.058;8.306;2023-01-20T07:38:06;21.73;;;16.27;;
15155;SDS011;7678;50.058;8.306;2023-01-20T07:40:34;18.67;;;15.50;;
15155;SDS011;7678;50.058;8.306;2023-01-20T07:43:02;22.70;;;15.73;;
15155;SDS011;7678;50.058;8.306;2023-01-20T07:45:30;22.63;;;15.87;;
15155;SDS011;7678;50.058;8.306;2023-01-20T07:47:58;20.77;;;15.47;;
15155;SDS011;7678;50.058;8.306;2023-01-20T07:50:30;21.30;;;16.60;;
15155;SDS011;7678;50.058;8.306;2023-01-20T07:52:58;22.63;;;15.90;;
15155;SDS011;7678;50.058;8.306;2023-01-20T07:55:26;27.43;;;17.33;;
15155;SDS011;7678;50.058;8.306;2023-01-20T07:57:54;21.90;;;15.87;;
15155;SDS011;7678;50.058;8.306;2023-01-20T08:00:23;20.67;;;15.27;;
15155;SDS011;7678;50.058;8.306;2023-01-20T08:02:51;24.40;;;15.50;;
15155;SDS011;7678;50.058;8.306;2023-01-20T08:05:19;20.60;;;16.13;;
15155;SDS011;7678;50.058;8.306;2023-01-20T08:07:51;21.47;;;16.33;;
15155;SDS011;7678;50.058;8.306;2023-01-20T08:10:19;23.10;;;18.03;;
15155;SDS011;7678;50.058;8.306;2023-01-20T08:12:48;21.53;;;14.87;;
15155;SDS011;7678;50.058;8.306;2023-01-20T08:15:16;18.33;;;14.07;;
15155;SDS011;7678;50.058;8.306;2023-01-20T08:17:44;19.83;;;14.40;;
15155;SDS011;7678;50.058;8.306;2023-01-20T08:20:14;26.33;;;15.97;;
15155;SDS011;7678;50.058;8.306;2023-01-20T08:22:44;24.07;;;16.73;;
15155;SDS011;7678;50.058;8.306;2023-01-20T08:25:14;22.87;;;15.23;;
15155;SDS011;7678;50.058;8.306;2023-01-20T08:27:42;24.73;;;16.77;;
15155;SDS011;7678;50.058;8.306;2023-01-20T08:30:11;22.77;;;16.60;;
15155;SDS011;7678;50.058;8.306;2023-01-20T08:32:39;23.33;;;16.07;;
15155;SDS011;7678;50.058;8.306;2023-01-20T08:35:07;20.97;;;16.47;;
15155;SDS011;7678;50.058;8.306;2023-01-20T08:37:35;24.10;;;17.53;;
15155;SDS011;7678;50.058;8.306;2023-01-20T08:40:04;26.00;;;18.07;;
15155;SDS011;7678;50.058;8.306;2023-01-20T08:42:35;28.47;;;17.57;;
15155;SDS011;7678;50.058;8.306;2023-01-20T08:45:05;24.80;;;18.60;;
15155;SDS011;7678;50.058;8.306;2023-01-20T08:47:34;23.77;;;17.67;;
15155;SDS011;7678;50.058;8.306;2023-01-20T08:50:04;25.70;;;17.57;;
15155;SDS011;7678;50.058;8.306;2023-01-20T08:52:34;24.20;;;18.63;;
15155;SDS011;7678;50.058;8.306;2023-01-20T08:55:02;23.47;;;18.50;;
15155;SDS011;7678;50.058;8.306;2023-01-20T08:57:30;23.33;;;19.37;;
15155;SDS011;7678;50.058;8.306;2023-01-20T08:59:59;26.40;;;17.93;;
15155;SDS011;7678;50.058;8.306;2023-01-20T09:02:27;26.00;;;20.70;;
15155;SDS011;7678;50.058;8.306;2023-01-20T09:04:56;26.73;;;20.10;;
15155;SDS011;7678;50.058;8.306;2023-01-20T09:07:24;26.70;;;20.07;;
15155;SDS011;7678;50.058;8.306;2023-01-20T09:09:52;26.03;;;20.33;;
15155;SDS011;7678;50.058;8.306;2023-01-20T09:12:20;27.67;;;20.03;;
15155;SDS011;7678;50.058;8.306;2023-01-20T09:14:48;30.17;;;20.50;;
15155;SDS011;7678;50.058;8.306;2023-01-20T09:17:17;26.77;;;20.17;;
15155;SDS011;7678;50.058;8.306;2023-01-20T09:19:45;30.60;;;20.37;;
15155;SDS011;7678;50.058;8.306;2023-01-20T09:22:13;28.33;;;20.83;;
15155;SDS011;7678;50.058;8.306;2023-01-20T09:24:41;27.27;;;19.70;;
15155;SDS011;7678;50.058;8.306;2023-01-20T09:27:09;27.30;;;19.30;;
15155;SDS011;7678;50.058;8.306;2023-01-20T09:29:37;30.17;;;20.03;;
15155;SDS011;7678;50.058;8.306;2023-01-20T09:32:06;27.27;;;18.73;;
15155;SDS011;7678;50.058;8.306;2023-01-20T09:34:38;27.87;;;19.23;;
15155;SDS011;7678;50.058;8.306;2023-01-20T09:37:06;26.60;;;19.50;;
15155;SDS011;7678;50.058;8.306;2023-01-20T09:39:52;28.47;;;19.83;;
15155;SDS011;7678;50.058;8.306;2023-01-20T09:42:40;23.63;;;18.43;;
15155;SDS011;7678;50.058;8.306;2023-01-20T09:45:41;27.00;;;18.70;;
15155;SDS011;7678;50.058;8.306;2023-01-20T09:48:20;24.47;;;19.03;;
15155;SDS011;7678;50.058;8.306;2023-01-20T09:51:16;25.60;;;18.33;;
15155;SDS011;7678;50.058;8.306;2023-01-20T09:54:10;30.63;;;19.87;;
15155;SDS011;7678;50.058;8.306;2023-01-20T09:56:44;27.63;;;19.20;;
15155;SDS011;7678;50.058;8.306;2023-01-20T09:59:15;28.77;;;19.90;;
15155;SDS011;7678;50.058;8.306;2023-01-20T10:01:48;27.40;;;18.97;;
15155;SDS011;7678;50.058;8.306;2023-01-20T10:04:19;29.13;;;19.53;;
15155;SDS011;7678;50.058;8.306;2023-01-20T10:06:57;29.07;;;19.37;;
15155;SDS011;7678;50.058;8.306;2023-01-20T10:09:30;28.30;;;18.47;;
15155;SDS011;7678;50.058;8.306;2023-01-20T10:12:05;32.40;;;21.50;;
15155;SDS011;7678;50.058;8.306;2023-01-20T10:14:37;33.27;;;21.87;;
15155;SDS011;7678;50.058;8.306;2023-01-20T10:17:11;29.60;;;21.50;;
15155;SDS011;7678;50.058;8.306;2023-01-20T10:19:43;30.33;;;21.63;;
15155;SDS011;7678;50.058;8.306;2023-01-20T10:22:18;31.33;;;22.70;;
15155;SDS011;7678;50.058;8.306;2023-01-20T10:24:49;26.63;;;21.43;;
15155;SDS011;7678;50.058;8.306;2023-01-20T10:27:22;34.27;;;22.57;;
15155;SDS011;7678;50.058;8.306;2023-01-20T10:29:56;30.10;;;21.27;;
15155;SDS011;7678;50.058;8.306;2023-01-20T10:32:31;33.80;;;20.90;;
15155;SDS011;7678;50.058;8.306;2023-01-20T10:35:02;29.43;;;20.90;;
15155;SDS011;7678;50.058;8.306;2023-01-20T10:37:37;32.57;;;21.27;;
15155;SDS011;7678;50.058;8.306;2023-01-20T10:40:12;26.40;;;19.30;;
15155;SDS011;7678;50.058;8.306;2023-01-20T10:42:45;28.20;;;19.67;;
15155;SDS011;7678;50.058;8.306;2023-01-20T10:45:20;25.53;;;19.53;;
15155;SDS011;7678;50.058;8.306;2023-01-20T10:47:58;30.57;;;19.10;;
15155;SDS011;7678;50.058;8.306;2023-01-20T10:53:12;24.87;;;18.20;;
15155;SDS011;7678;50.058;8.306;2023-01-20T10:55:52;31.93;;;20.63;;
15155;SDS011;7678;50.058;8.306;2023-01-20T10:58:28;30.80;;;18.73;;
15155;SDS011;7678;50.058;8.306;2023-01-20T11:01:01;24.87;;;18.87;;
15155;SDS011;7678;50.058;8.306;2023-01-20T11:03:34;24.97;;;18.83;;
15155;SDS011;7678;50.058;8.306;2023-01-20T11:06:05;25.40;;;17.80;;
15155;SDS011;7678;50.058;8.306;2023-01-20T11:08:38;25.93;;;18.47;;
15155;SDS011;7678;50.058;8.306;2023-01-20T11:11:10;24.57;;;17.17;;
15155;SDS011;7678;50.058;8.306;2023-01-20T11:13:39;25.20;;;16.77;;
15155;SDS011;7678;50.058;8.306;2023-01-20T11:16:10;22.40;;;16.43;;
15155;SDS011;7678;50.058;8.306;2023-01-20T11:18:42;23.77;;;16.63;;
15155;SDS011;7678;50.058;8.306;2023-01-20T11:21:26;22.87;;;14.97;;
15155;SDS011;7678;50.058;8.306;2023-01-20T11:23:57;23.27;;;14.30;;
15155;SDS011;7678;50.058;8.306;2023-01-20T11:26:27;18.27;;;13.73;;
15155;SDS011;7678;50.058;8.306;2023-01-20T11:28:58;23.10;;;14.43;;
15155;SDS011;7678;50.058;8.306;2023-01-20T11:31:35;25.27;;;13.43;;
15155;SDS011;7678;50.058;8.306;2023-01-20T11:40:02;18.53;;;12.63;;
15155;SDS011;7678;50.058;8.306;2023-01-20T11:42:44;18.67;;;11.87;;
15155;SDS011;7678;50.058;8.306;2023-01-20T11:45:24;17.00;;;12.20;;
15155;SDS011;7678;50.058;8.306;2023-01-20T11:48:02;16.83;;;12.73;;
15155;SDS011;7678;50.058;8.306;2023-01-20T11:50:32;16.73;;;11.67;;
15155;SDS011;7678;50.058;8.306;2023-01-20T11:53:15;16.63;;;12.47;;
15155;SDS011;7678;50.058;8.306;2023-01-20T11:55:48;15.67;;;12.87;;
15155;SDS011;7678;50.058;8.306;2023-01-20T11:58:19;20.47;;;13.30;;
15155;SDS011;7678;50.058;8.306;2023-01-20T12:00:50;20.30;;;14.07;;
15155;SDS011;7678;50.058;8.306;2023-01-20T12:06:24;20.23;;;14.20;;
15155;SDS011;7678;50.058;8.306;2023-01-20T12:08:56;19.63;;;13.23;;
15155;SDS011;7678;50.058;8.306;2023-01-20T12:11:29;19.30;;;12.33;;
15155;SDS011;7678;50.058;8.306;2023-01-20T12:14:02;19.77;;;12.47;;
15155;SDS011;7678;50.058;8.306;2023-01-20T12:16:53;15.70;;;11.23;;
15155;SDS011;7678;50.058;8.306;2023-01-20T12:19:28;15.20;;;11.07;;
15155;SDS011;7678;50.058;8.306;2023-01-20T12:22:03;12.40;;;10.37;;
15155;SDS011;7678;50.058;8.306;2023-01-20T12:24:41;14.97;;;10.03;;
15155;SDS011;7678;50.058;8.306;2023-01-20T12:27:42;11.27;;;8.73;;
15155;SDS011;7678;50.058;8.306;2023-01-20T12:30:29;13.83;;;8.37;;
15155;SDS011;7678;50.058;8.306;2023-01-20T12:36:02;12.63;;;9.43;;
15155;SDS011;7678;50.058;8.306;2023-01-20T12:38:43;12.20;;;8.83;;
15155;SDS011;7678;50.058;8.306;2023-01-20T12:41:28;18.13;;;8.63;;
15155;SDS011;7678;50.058;8.306;2023-01-20T12:44:11;14.03;;;8.23;;
15155;SDS011;7678;50.058;8.306;2023-01-20T12:46:43;12.80;;;8.17;;
15155;SDS011;7678;50.058;8.306;2023-01-20T12:49:26;11.37;;;7.43;;
15155;SDS011;7678;50.058;8.306;2023-01-20T12:52:14;11.13;;;7.37;;
15155;SDS011;7678;50.058;8.306;2023-01-20T12:55:01;10.60;;;7.03;;
15155;SDS011;7678;50.058;8.306;2023-01-20T12:57:46;11.37;;;7.67;;
15155;SDS011;7678;50.058;8.306;2023-01-20T13:00:33;10.83;;;7.10;;
15155;SDS011;7678;50.058;8.306;2023-01-20T13:06:19;10.13;;;7.93;;
15155;SDS011;7678;50.058;8.306;2023-01-20T13:09:19;11.83;;;8.33;;
15155;SDS011;7678;50.058;8.306;2023-01-20T13:12:03;11.87;;;8.00;;
15155;SDS011;7678;50.058;8.306;2023-01-20T13:14:41;13.43;;;6.97;;
15155;SDS011;7678;50.058;8.306;2023-01-20T13:17:13;14.43;;;7.73;;
15155;SDS011;7678;50.058;8.306;2023-01-20T13:19:45;13.20;;;7.10;;
15155;SDS011;7678;50.058;8.306;2023-01-20T13:22:15;12.87;;;7.47;;
15155;SDS011;7678;50.058;8.306;2023-01-20T13:24:46;11.73;;;7.43;;
15155;SDS011;7678;50.058;8.306;2023-01-20T13:27:16;11.03;;;7.70;;
15155;SDS011;7678;50.058;8.306;2023-01-20T13:29:55;12.40;;;8.23;;
15155;SDS011;7678;50.058;8.306;2023-01-20T13:32:24;14.40;;;8.13;;
15155;SDS011;7678;50.058;8.306;2023-01-20T13:34:54;14.67;;;9.10;;
15155;SDS011;7678;50.058;8.306;2023-01-20T13:37:24;14.47;;;9.63;;
15155;SDS011;7678;50.058;8.306;2023-01-20T13:39:57;11.57;;;8.37;;
15155;SDS011;7678;50.058;8.306;2023-01-20T13:42:27;12.40;;;9.13;;
15155;SDS011;7678;50.058;8.306;2023-01-20T13:45:19;23.70;;;13.97;;
15155;SDS011;7678;50.058;8.306;2023-01-20T13:47:57;18.27;;;12.00;;
15155;SDS011;7678;50.058;8.306;2023-01-20T13:50:31;13.80;;;8.67;;
15155;SDS011;7678;50.058;8.306;2023-01-20T13:53:01;12.10;;;8.23;;
15155;SDS011;7678;50.058;8.306;2023-01-20T13:55:49;16.70;;;9.33;;
15155;SDS011;7678;50.058;8.306;2023-01-20T13:58:22;12.00;;;8.17;;
15155;SDS011;7678;50.058;8.306;2023-01-20T14:00:53;11.67;;;8.10;;
15155;SDS011;7678;50.058;8.306;2023-01-20T14:03:23;12.67;;;8.17;;
15155;SDS011;7678;50.058;8.306;2023-01-20T14:05:54;15.17;;;8.87;;
15155;SDS011;7678;50.058;8.306;2023-01-20T14:08:24;15.87;;;8.57;;
15155;SDS011;7678;50.058;8.306;2023-01-20T14:11:08;11.97;;;8.33;;
15155;SDS011;7678;50.058;8.306;2023-01-20T14:13:37;14.40;;;9.03;;
15155;SDS011;7678;50.058;8.306;2023-01-20T14:16:16;12.70;;;9.03;;
15155;SDS011;7678;50.058;8.306;2023-01-20T14:18:46;14.90;;;8.73;;
15155;SDS011;7678;50.058;8.306;2023-01-20T14:21:16;19.03;;;9.43;;
15155;SDS011;7678;50.058;8.306;2023-01-20T14:23:46;10.67;;;8.20;;
15155;SDS011;7678;50.058;8.306;2023-01-20T14:26:19;13.07;;;8.20;;
15155;SDS011;7678;50.058;8.306;2023-01-20T14:28:49;12.57;;;7.63;;
15155;SDS011;7678;50.058;8.306;2023-01-20T14:31:30;10.30;;;5.73;;
15155;SDS011;7678;50.058;8.306;2023-01-20T14:34:17;12.73;;;6.73;;
15155;SDS011;7678;50.058;8.306;2023-01-20T14:36:49;10.87;;;6.83;;
15155;SDS011;7678;50.058;8.306;2023-01-20T14:39:18;14.50;;;6.70;;
15155;SDS011;7678;50.058;8.306;2023-01-20T14:41:49;10.80;;;5.93;;
15155;SDS011;7678;50.058;8.306;2023-01-20T14:44:18;13.80;;;7.07;;
15155;SDS011;7678;50.058;8.306;2023-01-20T14:46:50;5.33;;;4.30;;
15155;SDS011;7678;50.058;8.306;2023-01-20T14:49:20;7.80;;;4.83;;
15155;SDS011;7678;50.058;8.306;2023-01-20T14:51:50;8.90;;;4.70;;
15155;SDS011;7678;50.058;8.306;2023-01-20T14:54:29;8.90;;;4.80;;
15155;SDS011;7678;50.058;8.306;2023-01-20T14:57:03;9.40;;;5.37;;
15155;SDS011;7678;50.058;8.306;2023-01-20T14:59:43;9.77;;;4.90;;
15155;SDS011;7678;50.058;8.306;2023-01-20T15:02:17;7.43;;;5.10;;
15155;SDS011;7678;50.058;8.306;2023-01-20T15:04:53;7.13;;;4.77;;
15155;SDS011;7678;50.058;8.306;2023-01-20T15:07:22;8.80;;;5.00;;
15155;SDS011;7678;50.058;8.306;2023-01-20T15:09:53;7.17;;;4.57;;
15155;SDS011;7678;50.058;8.306;2023-01-20T15:12:30;6.43;;;4.27;;
15155;SDS011;7678;50.058;8.306;2023-01-20T15:15:11;7.33;;;4.37;;
15155;SDS011;7678;50.058;8.306;2023-01-20T15:20:47;8.87;;;4.60;;
15155;SDS011;7678;50.058;8.306;2023-01-20T15:23:29;9.90;;;5.07;;
15155;SDS011;7678;50.058;8.306;2023-01-20T15:26:05;7.60;;;5.33;;
15155;SDS011;7678;50.058;8.306;2023-01-20T15:28:35;11.37;;;5.30;;
15155;SDS011;7678;50.058;8.306;2023-01-20T15:31:10;10.07;;;5.23;;
15155;SDS011;7678;50.058;8.306;2023-01-20T15:33:42;8.87;;;5.23;;